Terminal Aerodrome Forecast
Issued by NWS Sterling, VA

Current Version | Previous Version | Text Only | Print | Product List | Glossary Off
Versions: 1 2 3 4 5 6 7 8 9 10 11 12 13 14 15 16 17 18 19 20 21 22 23 24

000
FTUS41 KLWX 192300
TAFIAD
TAF
KIAD 192337Z 2000/2106 14008KT P6SM BKN130
     FM200300 13004KT P6SM BKN090
     FM200800 14005KT 3SM BR BKN025
     FM201600 14008KT P6SM BKN040
     FM202200 15010KT P6SM -SHRA VCTS OVC070CB
     FM210400 14010KT P6SM BKN060=

USA.gov is the U.S. government's official web portal to all federal, state and local government web resources and services.